Clare Christine — V2DT7 — position and weather

sailwx.info

Track history (hours):
 
Tides and Currents Weather Stations Pressure Air Temp Water Temp Dewpoint Dewpoint Depression Visibility Wind Speed Wind Dir Waves Ship Positions

Clare Christine

Last reported at 2015-Mar-30 22:31 UTC. Time now 2015-Mar-31 00:22 UTC.
Position N 55°37' E 015°37'.

Length 89 m; draft 3.5 m.

Type: Cargo ship. MMSI: 305379000.

Date/timePositionNaut miles runAvg speedWind from/ knotsBaromVisibWave heightAir tempDewpointWater temp
2015-Mar-30 22:31N 55°37' E 015°37'1111.1
2015-Mar-30 21:33N 55°33' E 015°20'1111.2
2015-Mar-30 20:33N 55°29' E 015°02'1111.3
2015-Mar-30 19:33N 55°24' E 014°44'1110.6
2015-Mar-30 18:33N 55°16' E 014°30'1010.6
2015-Mar-30 17:33N 55°08' E 014°19'1110.7
2015-Mar-30 16:32N 54°60' E 014°06'1111.3
2015-Mar-30 15:33N 54°57' E 013°48'1111.3
2015-Mar-30 14:33N 54°53' E 013°29'1111.5
2015-Mar-30 13:33N 54°49' E 013°11'1211.9
2015-Mar-30 12:33N 54°46' E 012°51'1211.7
2015-Mar-30 11:33N 54°40' E 012°33'1111.3
2015-Mar-30 10:33N 54°33' E 012°18'1110.8
2015-Mar-30 09:33N 54°25' E 012°06'1212.0
2015-Mar-30 08:33N 54°26' E 011°45'1212.4
2015-Mar-30 07:33N 54°30' E 011°26'1312.6
2015-Mar-30 06:33N 54°35' E 011°05'1211.7
2015-Mar-30 05:32N 54°33' E 010°45'1110.9
2015-Mar-30 04:33N 54°31' E 010°27'1110.8
2015-Mar-30 03:33N 54°24' E 010°12'3 3.4
2015-Mar-30 02:33N 54°22' E 010°08'2 1.6
2015-Mar-30 01:33N 54°22' E 010°06'7 6.7
2015-Mar-30 00:33N 54°21' E 009°54'4 3.7
2015-Mar-29 23:33N 54°22' E 009°48'8 8.4
2015-Mar-29 22:33N 54°16' E 009°38'7 7.3
2015-Mar-29 21:33N 54°11' E 009°29'7 7.2
2015-Mar-29 20:33N 54°06' E 009°20'8 7.6
2015-Mar-29 19:33N 53°59' E 009°16'5 5.2
2015-Mar-29 18:33N 53°55' E 009°11'3 2.8
2015-Mar-29 17:34N 53°53' E 009°07'3 3.0
2015-Mar-29 16:33N 53°52' E 009°02'1010.5
2015-Mar-29 15:33N 53°52' E 008°45'1010.1
2015-Mar-29 14:33N 53°58' E 008°32'1212.2
2015-Mar-29 13:33N 53°59' E 008°11'1212.0
2015-Mar-29 12:33N 53°56' E 007°51'1211.7
2015-Mar-29 11:33N 53°54' E 007°32'1111.4
2015-Mar-29 10:33N 53°51' E 007°13'3511.4
2015-Mar-29 07:32N 53°43' E 006°16'1111.2
2015-Mar-29 06:33N 53°40' E 005°59'1111.3
2015-Mar-29 05:33N 53°36' E 005°41'1111.3
2015-Mar-29 04:33N 53°32' E 005°23'1111.3
2015-Mar-29 03:33N 53°29' E 005°05'1111.2
2015-Mar-29 02:33N 53°25' E 004°47'1110.9
2015-Mar-29 01:31N 53°15' E 004°38'5911.5
2015-Mar-28 20:24N 52°28' E 003°38'7011.1
2015-Mar-28 14:05N 51°42' E 002°11'611.1
2015-Mar-28 13:33N 51°39' E 002°04'1111.2
2015-Mar-28 12:33N 51°33' E 001°49'1111.3
2015-Mar-28 11:33N 51°29' E 001°32'1312.7
2015-Mar-28 10:32N 51°29' E 001°11'1212.5
2015-Mar-28 09:33N 51°29' E 000°51'1413.5
2015-Mar-28 08:33N 51°30' E 000°30'7 6.6
2015-Mar-28 07:34N 51°28' E 000°20'0 0.0
2015-Mar-28 06:31N 51°28' E 000°20'0 0.0
2015-Mar-28 05:32N 51°28' E 000°20'0 0.0
2015-Mar-28 04:32N 51°28' E 000°20'0 0.0
2015-Mar-28 03:34N 51°28' E 000°20'0 0.0
2015-Mar-28 02:34N 51°28' E 000°20'0 0.0
2015-Mar-28 01:31N 51°28' E 000°20'0 0.0
2015-Mar-28 00:34N 51°28' E 000°20'0 0.0
2015-Mar-27 23:34N 51°28' E 000°20'0 0.0
2015-Mar-27 22:33N 51°28' E 000°20'0 0.0
2015-Mar-27 21:33N 51°28' E 000°20'0 0.0
2015-Mar-27 20:34N 51°28' E 000°20'0 0.0
2015-Mar-27 19:33N 51°28' E 000°20'0 0.0
2015-Mar-27 18:33N 51°28' E 000°20'0 0.0
2015-Mar-27 17:34N 51°28' E 000°20'0 0.0
2015-Mar-27 16:34N 51°28' E 000°20'0 0.0
2015-Mar-27 15:33N 51°28' E 000°20'0 0.0
2015-Mar-27 14:34N 51°28' E 000°20'0 0.3
2015-Mar-27 13:34N 51°28' E 000°20'8 7.9
2015-Mar-27 12:33N 51°30' E 000°32'9 9.3
2015-Mar-27 11:33N 51°29' E 000°47'8 8.1
2015-Mar-27 10:33N 51°30' E 000°60'9 8.8
2015-Mar-27 09:33N 51°29' E 001°14'8 8.3
2015-Mar-27 08:33N 51°28' E 001°27'9 8.7
2015-Mar-27 07:33N 51°22' E 001°37'1110.6
2015-Mar-27 06:33N 51°11' E 001°37'9 8.9
2015-Mar-27 05:34N 51°02' E 001°37'1212.3
2015-Mar-27 04:33N 50°51' E 001°28'7610.4
2015-Mar-26 21:13N 49°52' E 000°12'6 8.6
2015-Mar-26 20:33N 49°48' E 000°07'9 8.6
2015-Mar-26 19:33N 49°40' W 000°00'9 9.0
2015-Mar-26 18:33N 49°32' W 000°06'9 8.7
2015-Mar-26 17:33N 49°25' W 000°13'8 8.0
2015-Mar-26 16:34N 49°17' W 000°15'4 3.7
2015-Mar-26 15:33N 49°14' W 000°18'0 0.0
2015-Mar-26 14:29N 49°14' W 000°18'0 0.0
2015-Mar-26 13:32N 49°14' W 000°18'0 0.0
2015-Mar-26 12:29N 49°14' W 000°18'0 0.0
2015-Mar-26 11:32N 49°14' W 000°18'0 0.0
2015-Mar-26 10:32N 49°14' W 000°18'0 0.0
2015-Mar-26 09:32N 49°14' W 000°18'0 0.0
2015-Mar-26 08:32N 49°14' W 000°18'0 0.0
2015-Mar-26 07:32N 49°14' W 000°18'0 0.0
2015-Mar-26 06:32N 49°14' W 000°18'0 0.0
2015-Mar-26 05:32N 49°14' W 000°18'0 0.0
2015-Mar-26 04:26N 49°14' W 000°18'0 0.0
2015-Mar-26 03:32N 49°14' W 000°18'0 0.0
2015-Mar-26 02:32N 49°14' W 000°18'0 0.0
2015-Mar-26 01:32N 49°14' W 000°18'0 0.0
2015-Mar-26 00:32N 49°14' W 000°18'0 0.0
2015-Mar-25 23:32N 49°14' W 000°18'0 0.0
2015-Mar-25 22:32N 49°14' W 000°18'0 0.0
2015-Mar-25 21:29N 49°14' W 000°18'0 0.0
2015-Mar-25 20:32N 49°14' W 000°18'0 0.0
2015-Mar-25 19:29N 49°14' W 000°18'0 0.0
2015-Mar-25 18:32N 49°14' W 000°18'0 0.0
2015-Mar-25 17:32N 49°14' W 000°18'0 0.0
2015-Mar-25 16:32N 49°14' W 000°18'0 0.0
2015-Mar-25 15:32N 49°14' W 000°18'0 0.0
2015-Mar-25 14:32N 49°14' W 000°18'4 3.8
2015-Mar-25 13:33N 49°17' W 000°15'6 6.2
2015-Mar-25 12:34N 49°23' W 000°12'8 7.7
2015-Mar-25 11:34N 49°29' W 000°18'9 8.5
2015-Mar-25 10:33N 49°32' W 000°31'1312.9
2015-Mar-25 09:31N 49°37' W 000°50'  
Track history (hours):
 
Tides and Currents Weather Stations Pressure Air Temp Water Temp Dewpoint Dewpoint Depression Visibility Wind Speed Wind Dir Waves Ship Positions

Clare Christine

Last reported at 2015-Mar-30 22:31 UTC. Time now 2015-Mar-31 00:22 UTC.
Position N 55°37' E 015°37'.

Length 89 m; draft 3.5 m.

Type: Cargo ship. MMSI: 305379000.

Date/timePositionNaut miles runAvg speedWind from/ knotsBaromVisibWave heightAir tempDewpointWater temp
2015-Mar-30 22:31N 55°37' E 015°37'1111.1
2015-Mar-30 21:33N 55°33' E 015°20'1111.2
2015-Mar-30 20:33N 55°29' E 015°02'1111.3
2015-Mar-30 19:33N 55°24' E 014°44'1110.6
2015-Mar-30 18:33N 55°16' E 014°30'1010.6
2015-Mar-30 17:33N 55°08' E 014°19'1110.7
2015-Mar-30 16:32N 54°60' E 014°06'1111.3
2015-Mar-30 15:33N 54°57' E 013°48'1111.3
2015-Mar-30 14:33N 54°53' E 013°29'1111.5
2015-Mar-30 13:33N 54°49' E 013°11'1211.9
2015-Mar-30 12:33N 54°46' E 012°51'1211.7
2015-Mar-30 11:33N 54°40' E 012°33'1111.3
2015-Mar-30 10:33N 54°33' E 012°18'1110.8
2015-Mar-30 09:33N 54°25' E 012°06'1212.0
2015-Mar-30 08:33N 54°26' E 011°45'1212.4
2015-Mar-30 07:33N 54°30' E 011°26'1312.6
2015-Mar-30 06:33N 54°35' E 011°05'1211.7
2015-Mar-30 05:32N 54°33' E 010°45'1110.9
2015-Mar-30 04:33N 54°31' E 010°27'1110.8
2015-Mar-30 03:33N 54°24' E 010°12'3 3.4
2015-Mar-30 02:33N 54°22' E 010°08'2 1.6
2015-Mar-30 01:33N 54°22' E 010°06'7 6.7
2015-Mar-30 00:33N 54°21' E 009°54'4 3.7
2015-Mar-29 23:33N 54°22' E 009°48'8 8.4
2015-Mar-29 22:33N 54°16' E 009°38'7 7.3
2015-Mar-29 21:33N 54°11' E 009°29'7 7.2
2015-Mar-29 20:33N 54°06' E 009°20'8 7.6
2015-Mar-29 19:33N 53°59' E 009°16'5 5.2
2015-Mar-29 18:33N 53°55' E 009°11'3 2.8
2015-Mar-29 17:34N 53°53' E 009°07'3 3.0
2015-Mar-29 16:33N 53°52' E 009°02'1010.5
2015-Mar-29 15:33N 53°52' E 008°45'1010.1
2015-Mar-29 14:33N 53°58' E 008°32'1212.2
2015-Mar-29 13:33N 53°59' E 008°11'1212.0
2015-Mar-29 12:33N 53°56' E 007°51'1211.7
2015-Mar-29 11:33N 53°54' E 007°32'1111.4
2015-Mar-29 10:33N 53°51' E 007°13'3511.4
2015-Mar-29 07:32N 53°43' E 006°16'1111.2
2015-Mar-29 06:33N 53°40' E 005°59'1111.3
2015-Mar-29 05:33N 53°36' E 005°41'1111.3
2015-Mar-29 04:33N 53°32' E 005°23'1111.3
2015-Mar-29 03:33N 53°29' E 005°05'1111.2
2015-Mar-29 02:33N 53°25' E 004°47'1110.9
2015-Mar-29 01:31N 53°15' E 004°38'5911.5
2015-Mar-28 20:24N 52°28' E 003°38'7011.1
2015-Mar-28 14:05N 51°42' E 002°11'611.1
2015-Mar-28 13:33N 51°39' E 002°04'1111.2
2015-Mar-28 12:33N 51°33' E 001°49'1111.3
2015-Mar-28 11:33N 51°29' E 001°32'1312.7
2015-Mar-28 10:32N 51°29' E 001°11'1212.5
2015-Mar-28 09:33N 51°29' E 000°51'1413.5
2015-Mar-28 08:33N 51°30' E 000°30'7 6.6
2015-Mar-28 07:34N 51°28' E 000°20'0 0.0
2015-Mar-28 06:31N 51°28' E 000°20'0 0.0
2015-Mar-28 05:32N 51°28' E 000°20'0 0.0
2015-Mar-28 04:32N 51°28' E 000°20'0 0.0
2015-Mar-28 03:34N 51°28' E 000°20'0 0.0
2015-Mar-28 02:34N 51°28' E 000°20'0 0.0
2015-Mar-28 01:31N 51°28' E 000°20'0 0.0
2015-Mar-28 00:34N 51°28' E 000°20'0 0.0
2015-Mar-27 23:34N 51°28' E 000°20'0 0.0
2015-Mar-27 22:33N 51°28' E 000°20'0 0.0
2015-Mar-27 21:33N 51°28' E 000°20'0 0.0
2015-Mar-27 20:34N 51°28' E 000°20'0 0.0
2015-Mar-27 19:33N 51°28' E 000°20'0 0.0
2015-Mar-27 18:33N 51°28' E 000°20'0 0.0
2015-Mar-27 17:34N 51°28' E 000°20'0 0.0
2015-Mar-27 16:34N 51°28' E 000°20'0 0.0
2015-Mar-27 15:33N 51°28' E 000°20'0 0.0
2015-Mar-27 14:34N 51°28' E 000°20'0 0.3
2015-Mar-27 13:34N 51°28' E 000°20'8 7.9
2015-Mar-27 12:33N 51°30' E 000°32'9 9.3
2015-Mar-27 11:33N 51°29' E 000°47'8 8.1
2015-Mar-27 10:33N 51°30' E 000°60'9 8.8
2015-Mar-27 09:33N 51°29' E 001°14'8 8.3
2015-Mar-27 08:33N 51°28' E 001°27'9 8.7
2015-Mar-27 07:33N 51°22' E 001°37'1110.6
2015-Mar-27 06:33N 51°11' E 001°37'9 8.9
2015-Mar-27 05:34N 51°02' E 001°37'1212.3
2015-Mar-27 04:33N 50°51' E 001°28'7610.4
2015-Mar-26 21:13N 49°52' E 000°12'6 8.6
2015-Mar-26 20:33N 49°48' E 000°07'9 8.6
2015-Mar-26 19:33N 49°40' W 000°00'9 9.0
2015-Mar-26 18:33N 49°32' W 000°06'9 8.7
2015-Mar-26 17:33N 49°25' W 000°13'8 8.0
2015-Mar-26 16:34N 49°17' W 000°15'4 3.7
2015-Mar-26 15:33N 49°14' W 000°18'0 0.0
2015-Mar-26 14:29N 49°14' W 000°18'0 0.0
2015-Mar-26 13:32N 49°14' W 000°18'0 0.0
2015-Mar-26 12:29N 49°14' W 000°18'0 0.0
2015-Mar-26 11:32N 49°14' W 000°18'0 0.0
2015-Mar-26 10:32N 49°14' W 000°18'0 0.0
2015-Mar-26 09:32N 49°14' W 000°18'0 0.0
2015-Mar-26 08:32N 49°14' W 000°18'0 0.0
2015-Mar-26 07:32N 49°14' W 000°18'0 0.0
2015-Mar-26 06:32N 49°14' W 000°18'0 0.0
2015-Mar-26 05:32N 49°14' W 000°18'0 0.0
2015-Mar-26 04:26N 49°14' W 000°18'0 0.0
2015-Mar-26 03:32N 49°14' W 000°18'0 0.0
2015-Mar-26 02:32N 49°14' W 000°18'0 0.0
2015-Mar-26 01:32N 49°14' W 000°18'0 0.0
2015-Mar-26 00:32N 49°14' W 000°18'0 0.0
2015-Mar-25 23:32N 49°14' W 000°18'0 0.0
2015-Mar-25 22:32N 49°14' W 000°18'0 0.0
2015-Mar-25 21:29N 49°14' W 000°18'0 0.0
2015-Mar-25 20:32N 49°14' W 000°18'0 0.0
2015-Mar-25 19:29N 49°14' W 000°18'0 0.0
2015-Mar-25 18:32N 49°14' W 000°18'0 0.0
2015-Mar-25 17:32N 49°14' W 000°18'0 0.0
2015-Mar-25 16:32N 49°14' W 000°18'0 0.0
2015-Mar-25 15:32N 49°14' W 000°18'0 0.0
2015-Mar-25 14:32N 49°14' W 000°18'4 3.8
2015-Mar-25 13:33N 49°17' W 000°15'6 6.2
2015-Mar-25 12:34N 49°23' W 000°12'8 7.7
2015-Mar-25 11:34N 49°29' W 000°18'9 8.5
2015-Mar-25 10:33N 49°32' W 000°31'1312.9
2015-Mar-25 09:31N 49°37' W 000°50'  

Dump ship's entire track history